Ashland, Oregon
Current Conditions -  °F | °C
As of 9:53 AM on Thursday 30 Oct 2014 (Local Time) from KMFR Reporting Station
Haze Haze  
Wind Chill: 56°   Ceiling: 700
Heat Index: 56°   Visibility: 4mi
Dew Point: 52°   Wind: 0mph
Humidity: 87%   Direction: NA
Pressure: 29.94"   Gusts: NA
Location:  42.2°N, 122.71°W
Report Text: KMFR 301653Z 00000KT 4SM BR OVC007 13/11 A2994 RMK AO2 SLP136 T01330111
Loading
Personal Weather Stations






























Interactive Weather Map
Tropical Storm Tracking
New forecast layout! Learn more

10-Day Weather Forecast

Advertisements
Track Severe Weather on mobile